La Plata, MO

8:59 PM CDT on April 29, 2017 (GMT -0500)
Kirksville Regional | | Change Station

Elev 965 ft 40.09 °N, 92.54 °W | Updated 4 minutes ago

Overcast
Overcast
42 °F
Feels Like 34 °F
N
16
Wind Variable Wind from ENE
Gusts 26 mph

Today
High -- | Low -- °F
--% Chance of Precip.
Yesterday
High -- | Low -- °F
Precip. -- in
Pressure 29.91 in
Visibility 10.0 miles
Clouds Overcast 400 ft
Windchill 34 °F
Dew Point 31 °F
Humidity 65%
Rainfall 1.21 in
Snow Depth Not available.
6:12 AM 8:03 PM
Waxing Crescent, 18% visible
METAR KIRK 300155Z AUTO 06014G23KT 10SM OVC004 06/M01 A2989 RMK AO2 RAE02 SLP129 P0001 T00561006
Pressure 29.91 in
Visibility 10.0 miles
Clouds Overcast 400 ft
Windchill 34 °F
Dew Point 31 °F
Humidity 65%
Rainfall 1.21 in
Snow Depth Not available.
6:12 AM 8:03 PM
Waxing Crescent, 18% visible
METAR KIRK 300155Z AUTO 06014G23KT 10SM OVC004 06/M01 A2989 RMK AO2 RAE02 SLP129 P0001 T00561006

Get Severe Weather Alerts

Thanks for signing up!

Be on the lookout for a verification email in your inbox.

You'll start receiving the daily forecast at 8 AM.

×

10-Day Weather Forecast

Almanac

Astronomy

Apr. 29, 2017 Rise Set
Actual Time
Civil Twilight
Nautical Twilight
Astronomical Twilight
Moon
Length of Visible Light
Length of Day
Tomorrow will be .
, % of the Moon is Illuminated

Today's Extremes

State Highs State Lows

Community

WunderPhotos

WunderBlog® & News

Nearby

Air Quality

  Air Quality AQ Index Pollutant
Not available.

Snow Depth

Station Depth Elevation

Earthquake Activity

City Distance Mag. Time & Date
Minimum magnitude displayed is 2.5.

Coastal Water Temperatures

Place Temperature

Stations

Nearby Weather Stations

Station Location Temp. Windchill Dew Point Humidity Wind Precip. Elev Updated Type
                   

Watches & Warnings

There are currently no watches in effect.